Station: EDITHBURGH AWS

  Atmospheric Gas Attenuation - ITU Rec 676-11   --------------- db/100km ---------------
Date Time Temp RH % AH g/m3 Dew Point Wind Direction Speed kph Gust kph Barometer mB Rainfall Since 9am 24GHz 47GHz 76GHz 122GHz 134GHz 241GHz
27 12:30 13.6 87 10.24 11.5 17 20 1026.4 0 23.1 29.2 47.4 124.4 122.3 421.9
27 12:20 14.2 87 10.62 12 17 19 1013.1 0 23.9 29.1 48.0 126.2 125.4 433.0
27 12:10 14 86 10.37 11.8 17 19 1013.1 0 23.4 28.8 47.0 123.7 122.2 421.8
27 12:00 13.5 90 10.53 11.9 15 20 1026.7 0 23.7 29.8 48.7 128.0 126.6 437.0
27 11:50 13.1 90 10.27 11.5 13 17 1013.1 0 23.2 28.9 47.1 124.0 122.2 421.8
27 11:40 12.8 92 10.31 11.5 7 9 1013.1 0 23.3 29.1 47.5 124.9 123.3 425.4
27 11:30 12.4 93 10.16 11.3 9 13 1027.1 0 23.0 29.5 47.8 125.5 123.2 424.7
27 11:20 12.2 94 10.14 11.2 9 11 1013.1 0 23.0 29.0 47.1 123.9 121.8 420.2
27 11:10 12.6 94 10.4 11.6 11 11 1013.1 0 23.5 29.3 48.0 126.3 124.9 431.0
27 11:00 12.5 93 10.23 11.4 13 17 1027.2 0 23.1 29.6 48.0 126.2 124.0 427.7
27 10:50 12.7 87 9.69 10.6 13 13 1013.1 0 22.0 28.0 44.9 118.0 114.7 395.4
27 10:40 12.8 85 9.52 10.3 9 11 1013.1 0 21.6 27.7 44.1 115.9 112.2 386.6
27 10:30 13 84 9.53 10.4 11 15 1027.4 0 21.6 28.2 44.7 117.4 113.3 390.5
27 10:20 13.2 84 9.65 10.5 15 17 1013.1 0 21.9 27.8 44.4 116.8 113.4 390.9
27 10:10 12.9 84 9.47 10.2 11 13 1013.1 0 21.5 27.6 43.8 115.2 111.4 383.7
27 10:00 13.3 85 9.82 10.8 11 15 1027.6 0 22.2 28.6 45.8 120.2 117.0 403.2
27 09:50 13.5 84 9.83 10.8 13 15 1013.1 0 22.2 28.0 45.0 118.4 115.5 398.1
27 09:40 13.2 86 9.88 11 11 11 1013.1 0 22.4 28.2 45.4 119.4 116.6 402.1
27 09:30 13 87 9.87 10.9 13 17 1027.8 0 22.3 28.8 46.2 121.3 118.2 407.3
27 09:20 13.1 86 9.81 10.8 11 13 1013.1 0 22.2 28.1 45.2 118.8 115.8 399.2
27 09:10 13.2 85 9.76 10.7 9 11 1013.1 0 22.1 28.0 44.9 118.0 114.9 396.2
27 09:00 12.6 86 9.52 10.3 11 13 1027.8 0 21.6 28.4 44.9 117.9 113.8 392.2
27 08:50 12.5 89 9.79 10.7 7 9 1013.1 0 22.2 28.3 45.4 119.5 116.4 401.3
27 08:40 12.4 90 9.83 10.8 9 11 1013.1 0 22.3 28.4 45.7 120.1 117.1 403.8
27 08:30 12 90 9.59 10.4 7 13 1027.6 0 21.8 28.7 45.6 119.6 115.7 398.6
27 08:20 11.7 95 9.94 10.9 6 6 1013.1 0 22.6 28.8 46.5 122.4 119.8 413.0
27 08:10 11 100 10.01 11 0 0 1013.1 0 22.8 29.1 47.3 124.4 121.9 420.3
27 08:00 10.6 100 9.76 10.6 0 0 1027.5 0 22.2 29.4 47.1 123.8 120.3 414.5
27 07:50 10.6 100 9.76 10.6 0 0 1013.1 0 22.3 28.8 46.4 122.1 118.9 409.8
27 07:40 10 100 9.4 10 6 6 1013.1 0 21.5 28.4 45.2 118.8 114.7 394.9
27 07:30 9.3 100 8.99 9.3 6 6 1027.3 0 20.6 28.5 44.5 116.7 111.1 382.2
27 07:20 9.1 100 8.88 9.1 4 4 1013.1 0 20.4 27.8 43.4 114.1 108.6 373.4
27 07:10 8.7 100 8.65 8.7 6 6 1013.1 0 19.9 27.5 42.7 112.1 105.8 363.8
27 07:00 8.1 100 8.32 8.1 6 7 1027.2 0 19.3 27.7 42.2 110.7 103.2 354.3
27 06:50 6.9 100 7.7 6.9 7 7 1013.1 0 18.0 26.4 39.5 103.7 94.8 324.9
27 06:40 6.2 100 7.36 6.2 6 6 1013.1 0 17.3 26.1 38.4 100.7 90.9 311.1
27 06:30 6.2 100 7.36 6.2 6 7 1026.6 0 17.3 26.6 39.0 102.2 91.9 314.6
27 06:20 6 100 7.26 6 6 7 1013.1 0 17.1 25.9 38.1 99.9 89.7 307.0
27 06:10 5.8 100 7.17 5.8 6 7 1013.1 0 16.9 25.8 37.8 99.1 88.7 303.4
27 06:00 5.7 100 7.12 5.7 7 11 1026.1 0 16.8 26.3 38.2 100.0 89.1 304.6
27 05:50 5.4 100 6.98 5.4 7 9 1013.1 0 16.5 25.6 37.2 97.5 86.5 295.6
27 05:40 5.8 100 7.17 5.8 6 6 1013.1 0 16.9 25.8 37.8 99.1 88.7 303.4
27 05:30 5.8 100 7.17 5.8 4 6 1025.7 0 16.9 26.3 38.4 100.4 89.6 306.5
27 05:10 5.6 100 7.07 5.6 4 6 1013.1 0 16.7 25.7 37.5 98.2 87.5 299.3
27 04:40 5.9 100 7.22 5.9 6 6 1013.1 0 17.0 25.9 38.0 99.5 89.3 305.4
27 04:30 6.2 100 7.36 6.2 4 6 1024.9 0 17.3 26.5 39.0 102.0 91.8 314.1
27 04:20 6.9 100 7.7 6.9 4 4 1013.1 0 18.0 26.4 39.5 103.7 94.8 324.9
27 04:10 7 100 7.75 7 2 2 1013.1 0 18.1 26.5 39.7 104.1 95.4 326.9
27 04:00 7.1 100 7.8 7.1 4 6 1024.8 0 18.2 27.0 40.4 105.8 96.9 332.1
27 03:50 7 100 7.75 7 4 4 1013.1 0 18.1 26.5 39.7 104.1 95.4 326.9
27 03:40 6.8 100 7.65 6.8 7 7 1013.1 0 17.9 26.4 39.4 103.3 94.2 322.9
27 03:30 6.7 100 7.6 6.7 6 7 1024.8 0 17.8 26.8 39.7 104.1 94.6 323.9
27 03:20 6.6 100 7.55 6.6 7 7 1013.1 0 17.7 26.3 39.0 102.4 93.0 318.8
27 03:10 5.8 100 7.17 5.8 4 6 1013.1 0 16.9 25.8 37.8 99.1 88.7 303.4
27 03:00 6.2 100 7.36 6.2 7 9 1024.7 0 17.3 26.5 39.0 102.0 91.8 314.1
27 02:50 5.8 100 7.17 5.8 6 7 1013.1 0 16.9 25.8 37.8 99.1 88.7 303.4
27 02:40 6.1 100 7.31 6.1 6 7 1013.1 0 17.2 26.0 38.3 100.3 90.3 309.0
27 02:30 6.3 100 7.41 6.3 7 9 1024.6 0 17.4 26.6 39.1 102.4 92.3 316.1
27 02:20 6.5 100 7.5 6.5 7 7 1013.1 0 17.6 26.2 38.9 101.9 92.5 316.7
27 02:10 7.8 100 8.16 7.8 6 6 1013.1 0 18.9 26.9 41.0 107.7 100.1 343.7
27 02:00 8.8 100 8.71 8.8 7 7 1024.6 0 20.1 28.0 43.4 113.9 107.6 369.7
27 01:50 9.1 99 8.79 8.9 7 9 1013.1 0 20.2 27.6 43.1 113.1 107.3 368.9
27 01:40 9.6 97 8.89 9.1 9 11 1013.1 0 20.4 27.6 43.2 113.5 108.0 371.5
27 01:30 9.7 99 9.13 9.6 9 13 1024.8 0 20.9 28.5 44.8 117.5 112.3 386.5
27 01:20 9 100 8.82 9 13 15 1013.1 0 20.3 27.7 43.2 113.6 107.8 370.9
27 01:10 7.8 98 8 7.5 6 6 1013.1 0 18.6 26.7 40.4 105.9 97.9 335.8
27 01:00 7.6 97 7.82 7.2 6 7 1024.9 0 18.2 26.9 40.2 105.4 96.5 331.0
27 00:50 8 94 7.77 7.1 6 7 1013.1 0 18.1 26.2 39.3 103.0 94.4 323.7
27 00:40 8.5 94 8.03 7.6 7 7 1013.1 0 18.6 26.5 40.1 105.3 97.4 334.2
27 00:30 9.3 94 8.45 8.4 6 7 1025 0 19.5 27.5 42.0 110.2 103.2 354.6
27 00:20 9.9 93 8.69 8.9 7 7 1013.1 0 20.0 27.2 42.2 110.8 104.8 360.2
27 00:10 10.3 93 8.91 9.2 7 7 1013.1 0 20.4 27.5 42.9 112.7 107.3 369.1
27 00:00 10.5 92 8.92 9.3 11 13 1025.2 0 20.4 27.9 43.4 113.9 108.2 372.2
26 23:50 10.8 91 9 9.4 13 15 1013.1 0 20.6 27.5 43.0 113.0 107.8 371.1
26 23:40 10.7 92 9.04 9.4 13 15 1013.1 0 20.7 27.6 43.2 113.6 108.5 373.5
26 23:30 11 91 9.11 9.6 13 20 1025.2 0 20.8 28.1 44.0 115.3 110.2 379.2
26 23:20 11.3 87 8.88 9.3 15 17 1013.1 0 20.3 27.1 42.2 110.9 105.5 362.9
26 23:10 11.2 87 8.82 9.2 11 13 1013.1 0 20.2 27.0 42.0 110.4 104.8 360.5
26 23:00 11.2 86 8.72 8.9 9 13 1025.1 0 20.0 27.3 42.2 110.6 104.4 359.1
26 22:50 10.9 86 8.56 8.6 9 9 1013.1 0 19.6 26.7 41.1 107.9 101.6 349.3
26 22:40 11 84 8.41 8.5 13 15 1013.1 0 19.3 26.4 40.4 106.1 99.4 341.7
26 22:30 11.1 87 8.76 9 11 17 1025 0 20.1 27.4 42.4 111.2 105.1 361.5
26 22:20 11.2 87 8.82 9.1 13 15 1013.1 0 20.2 27.0 42.0 110.4 104.8 360.5
26 22:10 10.9 89 8.85 9.1 11 15 1013.1 0 20.3 27.2 42.3 111.2 105.6 363.3
26 22:00 11 89 8.91 9.3 15 19 1025.1 0 20.4 27.7 43.1 113.0 107.4 369.3
26 21:50 11 90 9.01 9.5 15 17 1013.1 0 20.6 27.4 43.0 112.8 107.7 370.6
26 21:40 11 90 9.01 9.4 15 19 1013.1 0 20.6 27.4 43.0 112.8 107.7 370.6
26 21:30 11.2 90 9.12 9.6 15 19 1025.1 0 20.8 28.0 43.9 115.1 110.0 378.6
26 21:20 11.3 92 9.39 10 15 17 1013.1 0 21.4 28.0 44.4 116.7 112.6 387.8
26 21:10 11.3 92 9.39 10 17 19 1013.1 0 21.4 28.0 44.4 116.7 112.6 387.8
26 21:00 11.4 93 9.55 10.3 15 22 1025 0 21.7 28.7 45.6 119.8 115.8 398.9
26 20:50 11.4 90 9.24 9.9 17 20 1013.1 0 21.1 27.7 43.7 114.9 110.3 379.9
26 20:40 11.5 92 9.5 10.2 17 20 1013.1 0 21.6 28.1 44.8 117.7 113.8 392.2
26 20:30 11.5 94 9.71 10.6 19 24 1024.8 0 22.1 28.9 46.2 121.4 117.9 406.3
26 20:20 11.4 95 9.75 10.6 20 22 1013.1 0 22.2 28.6 45.9 120.7 117.5 405.1
26 20:10 10.2 95 9.04 9.4 4 4 1013.1 0 20.7 27.7 43.5 114.4 109.3 376.0
26 20:00 10.1 93 8.8 9 7 9 1024.6 0 20.2 27.8 43.1 113.0 107.0 368.0
26 19:50 10.4 92 8.87 9.1 6 7 1013.1 0 20.3 27.4 42.7 112.1 106.6 366.7
26 19:40 10.6 91 8.88 9.2 7 9 1013.1 0 20.3 27.3 42.6 111.9 106.4 366.2
26 19:30 10.8 90 8.9 9.2 7 11 1024.3 0 20.4 27.7 43.1 113.1 107.4 369.5

Last Refresh: 27-Sep-2020 12:39:35

Most of the information presented on this site is sourced from the Bureau of Meteorology.  Copyright in all material sourced from the Bureau of Meteorology resides with the Commonwealth of Australia.